sensor_id;sensor_type;location;lat;lon;timestamp;pressure;altitude;pressure_sealevel;temperature;humidity
16100;BME280;8154;50.830;12.082;2023-02-11T00:19:52;101094.38;;;22.37;29.13
16100;BME280;8154;50.830;12.082;2023-02-11T00:22:19;101095.53;;;22.34;29.01
16100;BME280;8154;50.830;12.082;2023-02-11T00:24:46;101085.16;;;22.31;29.04
16100;BME280;8154;50.830;12.082;2023-02-11T00:27:12;101083.00;;;22.44;28.93
16100;BME280;8154;50.830;12.082;2023-02-11T00:29:39;101074.53;;;22.49;28.86
16100;BME280;8154;50.830;12.082;2023-02-11T00:32:06;101069.66;;;22.44;29.06
16100;BME280;8154;50.830;12.082;2023-02-11T00:34:34;101065.91;;;22.37;28.96
16100;BME280;8154;50.830;12.082;2023-02-11T00:37:01;101063.16;;;22.29;29.11
16100;BME280;8154;50.830;12.082;2023-02-11T00:39:28;101058.69;;;22.30;29.08
16100;BME280;8154;50.830;12.082;2023-02-11T00:41:54;101054.00;;;22.41;28.95
16100;BME280;8154;50.830;12.082;2023-02-11T00:44:20;101043.69;;;22.46;28.88
16100;BME280;8154;50.830;12.082;2023-02-11T00:46:46;101032.38;;;22.44;28.88
16100;BME280;8154;50.830;12.082;2023-02-11T00:49:13;101032.28;;;22.36;28.92
16100;BME280;8154;50.830;12.082;2023-02-11T00:51:39;101012.09;;;22.34;29.10
16100;BME280;8154;50.830;12.082;2023-02-11T00:54:05;101004.25;;;22.32;29.11
16100;BME280;8154;50.830;12.082;2023-02-11T00:56:32;101005.34;;;22.39;28.96
16100;BME280;8154;50.830;12.082;2023-02-11T00:58:59;101010.06;;;22.45;28.68
16100;BME280;8154;50.830;12.082;2023-02-11T01:01:25;101013.72;;;22.44;28.89
16100;BME280;8154;50.830;12.082;2023-02-11T01:03:51;101009.81;;;22.39;28.94
16100;BME280;8154;50.830;12.082;2023-02-11T01:06:18;101004.09;;;22.34;29.19
16100;BME280;8154;50.830;12.082;2023-02-11T01:08:44;101008.75;;;22.32;29.10
16100;BME280;8154;50.830;12.082;2023-02-11T01:11:15;101001.97;;;22.37;28.90
16100;BME280;8154;50.830;12.082;2023-02-11T01:13:41;101000.25;;;22.46;28.90
16100;BME280;8154;50.830;12.082;2023-02-11T01:16:08;101006.69;;;22.43;28.80
16100;BME280;8154;50.830;12.082;2023-02-11T01:18:36;101023.28;;;22.37;29.00
16100;BME280;8154;50.830;12.082;2023-02-11T01:21:03;101015.28;;;22.37;28.89
16100;BME280;8154;50.830;12.082;2023-02-11T01:23:29;101017.50;;;22.42;28.78
16100;BME280;8154;50.830;12.082;2023-02-11T01:25:56;101024.38;;;22.44;28.81
16100;BME280;8154;50.830;12.082;2023-02-11T01:28:24;101025.81;;;22.39;28.92
16100;BME280;8154;50.830;12.082;2023-02-11T01:30:51;101028.63;;;22.37;28.88
16100;BME280;8154;50.830;12.082;2023-02-11T01:33:17;101022.69;;;22.43;28.80
16100;BME280;8154;50.830;12.082;2023-02-11T01:35:44;101024.38;;;22.44;28.86
16100;BME280;8154;50.830;12.082;2023-02-11T01:38:21;101022.31;;;22.38;29.24
16100;BME280;8154;50.830;12.082;2023-02-11T01:40:55;101010.44;;;22.33;28.92
16100;BME280;8154;50.830;12.082;2023-02-11T01:43:22;100994.59;;;22.31;29.07
16100;BME280;8154;50.830;12.082;2023-02-11T01:48:31;100971.41;;;22.41;28.76
16100;BME280;8154;50.830;12.082;2023-02-11T01:51:16;100973.06;;;22.42;28.90
16100;BME280;8154;50.830;12.082;2023-02-11T01:53:43;100960.34;;;22.36;28.88
16100;BME280;8154;50.830;12.082;2023-02-11T01:56:31;100959.03;;;22.40;28.89
16100;BME280;8154;50.830;12.082;2023-02-11T01:59:27;100954.41;;;22.42;28.75
16100;BME280;8154;50.830;12.082;2023-02-11T02:02:03;100961.88;;;22.39;28.85
16100;BME280;8154;50.830;12.082;2023-02-11T02:04:37;100953.34;;;22.35;28.92
16100;BME280;8154;50.830;12.082;2023-02-11T02:07:09;100960.03;;;22.39;28.64
16100;BME280;8154;50.830;12.082;2023-02-11T02:09:41;100971.09;;;22.44;28.73
16100;BME280;8154;50.830;12.082;2023-02-11T02:12:09;100968.19;;;22.38;28.87
16100;BME280;8154;50.830;12.082;2023-02-11T02:14:41;100952.81;;;22.32;28.92
16100;BME280;8154;50.830;12.082;2023-02-11T02:17:25;100937.72;;;22.40;28.77
16100;BME280;8154;50.830;12.082;2023-02-11T02:32:07;100920.56;;;22.35;28.84
16100;BME280;8154;50.830;12.082;2023-02-11T02:34:52;100923.44;;;22.41;28.80
16100;BME280;8154;50.830;12.082;2023-02-11T02:40:34;100931.66;;;22.30;28.89
16100;BME280;8154;50.830;12.082;2023-02-11T02:43:03;100939.13;;;22.27;28.92
16100;BME280;8154;50.830;12.082;2023-02-11T02:45:29;100942.63;;;22.27;28.93
16100;BME280;8154;50.830;12.082;2023-02-11T02:47:56;100957.69;;;22.36;28.84
16100;BME280;8154;50.830;12.082;2023-02-11T02:50:27;100943.91;;;22.41;28.77
16100;BME280;8154;50.830;12.082;2023-02-11T02:53:23;100924.19;;;22.34;28.90
16100;BME280;8154;50.830;12.082;2023-02-11T02:56:12;100910.88;;;22.34;28.85
16100;BME280;8154;50.830;12.082;2023-02-11T03:01:51;100906.91;;;22.38;28.89
16100;BME280;8154;50.830;12.082;2023-02-11T03:04:34;100911.00;;;22.32;28.87
16100;BME280;8154;50.830;12.082;2023-02-11T03:07:24;100900.97;;;22.26;29.10
16100;BME280;8154;50.830;12.082;2023-02-11T03:09:57;100892.31;;;22.24;29.02
16100;BME280;8154;50.830;12.082;2023-02-11T03:12:26;100879.16;;;22.23;28.98
16100;BME280;8154;50.830;12.082;2023-02-11T03:14:55;100875.66;;;22.22;29.17
16100;BME280;8154;50.830;12.082;2023-02-11T03:17:22;100881.72;;;22.32;28.96
16100;BME280;8154;50.830;12.082;2023-02-11T03:19:51;100868.63;;;22.39;28.63
16100;BME280;8154;50.830;12.082;2023-02-11T05:21:40;100880.91;;;22.32;28.68
16100;BME280;8154;50.830;12.082;2023-02-11T05:24:07;100877.78;;;22.36;28.83
16100;BME280;8154;50.830;12.082;2023-02-11T05:26:33;100873.41;;;22.35;28.84
16100;BME280;8154;50.830;12.082;2023-02-11T05:28:59;100865.72;;;22.32;28.95
16100;BME280;8154;50.830;12.082;2023-02-11T05:31:25;100855.94;;;22.33;29.01
16100;BME280;8154;50.830;12.082;2023-02-11T05:33:51;100856.47;;;22.36;28.81
16100;BME280;8154;50.830;12.082;2023-02-11T05:36:17;100859.94;;;22.37;28.73
16100;BME280;8154;50.830;12.082;2023-02-11T05:38:43;100856.78;;;22.33;28.80
16100;BME280;8154;50.830;12.082;2023-02-11T05:41:10;100855.94;;;22.33;28.67
16100;BME280;8154;50.830;12.082;2023-02-11T05:43:36;100851.94;;;22.37;28.71
16100;BME280;8154;50.830;12.082;2023-02-11T05:46:03;100858.97;;;22.38;28.75
16100;BME280;8154;50.830;12.082;2023-02-11T05:48:30;100865.72;;;22.32;28.88
16100;BME280;8154;50.830;12.082;2023-02-11T05:50:56;100869.25;;;22.33;28.82
16100;BME280;8154;50.830;12.082;2023-02-11T05:53:22;100874.97;;;22.38;28.73
16100;BME280;8154;50.830;12.082;2023-02-11T05:55:48;100871.97;;;22.41;28.74
16100;BME280;8154;50.830;12.082;2023-02-11T05:58:16;100869.78;;;22.36;28.88
16100;BME280;8154;50.830;12.082;2023-02-11T06:00:42;100876.53;;;22.31;28.75
16100;BME280;8154;50.830;12.082;2023-02-11T06:03:08;100874.19;;;22.28;28.93
16100;BME280;8154;50.830;12.082;2023-02-11T06:05:34;100883.88;;;22.29;28.92
16100;BME280;8154;50.830;12.082;2023-02-11T06:08:00;100873.41;;;22.35;28.78
16100;BME280;8154;50.830;12.082;2023-02-11T06:10:26;100886.31;;;22.40;28.73
16100;BME280;8154;50.830;12.082;2023-02-11T06:12:52;100886.72;;;22.35;28.78
16100;BME280;8154;50.830;12.082;2023-02-11T06:15:18;100886.88;;;22.34;28.83
16100;BME280;8154;50.830;12.082;2023-02-11T06:17:44;100897.94;;;22.39;28.77
16100;BME280;8154;50.830;12.082;2023-02-11T06:20:10;100898.47;;;22.42;28.73
16100;BME280;8154;50.830;12.082;2023-02-11T06:22:37;100897.13;;;22.38;28.76
16100;BME280;8154;50.830;12.082;2023-02-11T06:25:03;100884.06;;;22.35;28.86
16100;BME280;8154;50.830;12.082;2023-02-11T06:27:30;100884.59;;;22.39;28.83
16100;BME280;8154;50.830;12.082;2023-02-11T06:29:58;100888.66;;;22.43;28.75
16100;BME280;8154;50.830;12.082;2023-02-11T06:32:25;100889.78;;;22.40;28.77
16100;BME280;8154;50.830;12.082;2023-02-11T06:34:51;100878.91;;;22.34;28.70
16100;BME280;8154;50.830;12.082;2023-02-11T06:37:17;100875.81;;;22.38;28.72
16100;BME280;8154;50.830;12.082;2023-02-11T06:39:44;100896.50;;;22.44;28.69
16100;BME280;8154;50.830;12.082;2023-02-11T06:42:10;100886.47;;;22.38;28.77
16100;BME280;8154;50.830;12.082;2023-02-11T06:44:36;100892.91;;;22.36;28.94
16100;BME280;8154;50.830;12.082;2023-02-11T06:47:03;100896.19;;;22.30;28.87
16100;BME280;8154;50.830;12.082;2023-02-11T06:49:29;100898.53;;;22.33;28.91
16100;BME280;8154;50.830;12.082;2023-02-11T06:51:55;100897.13;;;22.38;28.89
16100;BME280;8154;50.830;12.082;2023-02-11T06:54:21;100900.13;;;22.43;28.78
16100;BME280;8154;50.830;12.082;2023-02-11T06:56:47;100893.13;;;22.42;28.73
16100;BME280;8154;50.830;12.082;2023-02-11T06:59:17;100904.09;;;22.39;28.88
16100;BME280;8154;50.830;12.082;2023-02-11T07:01:43;100901.28;;;22.41;28.81
16100;BME280;8154;50.830;12.082;2023-02-11T07:04:09;100892.13;;;22.43;28.82
16100;BME280;8154;50.830;12.082;2023-02-11T07:06:35;100890.31;;;22.44;28.78
16100;BME280;8154;50.830;12.082;2023-02-11T07:09:03;100888.97;;;22.40;28.82
16100;BME280;8154;50.830;12.082;2023-02-11T07:11:30;100895.97;;;22.41;28.90
16100;BME280;8154;50.830;12.082;2023-02-11T07:14:02;100899.00;;;22.46;28.93
16100;BME280;8154;50.830;12.082;2023-02-11T07:16:30;100902.63;;;22.45;28.74
16100;BME280;8154;50.830;12.082;2023-02-11T07:18:57;100900.28;;;22.42;28.99
16100;BME280;8154;50.830;12.082;2023-02-11T07:21:25;100894.13;;;22.41;28.83
16100;BME280;8154;50.830;12.082;2023-02-11T09:26:46;100929.38;;;22.53;29.16
16100;BME280;8154;50.830;12.082;2023-02-11T09:29:14;100933.28;;;22.58;28.94
16100;BME280;8154;50.830;12.082;2023-02-11T09:31:41;100919.13;;;22.58;28.91
16100;BME280;8154;50.830;12.082;2023-02-11T09:34:07;100923.75;;;22.56;28.89
16100;BME280;8154;50.830;12.082;2023-02-11T09:36:36;100931.75;;;22.56;29.02
16100;BME280;8154;50.830;12.082;2023-02-11T09:39:05;100923.75;;;22.56;29.02
16100;BME280;8154;50.830;12.082;2023-02-11T09:41:40;100937.06;;;22.56;29.13
16100;BME280;8154;50.830;12.082;2023-02-11T09:44:17;100937.59;;;22.59;28.90
16100;BME280;8154;50.830;12.082;2023-02-11T09:46:49;100941.28;;;22.58;28.92
16100;BME280;8154;50.830;12.082;2023-02-11T09:49:22;100938.75;;;22.57;28.92
16100;BME280;8154;50.830;12.082;2023-02-11T09:52:01;100944.59;;;22.60;28.92
16100;BME280;8154;50.830;12.082;2023-02-11T09:54:41;100951.31;;;22.64;28.91
16100;BME280;8154;50.830;12.082;2023-02-11T09:57:11;100942.78;;;22.61;28.81
16100;BME280;8154;50.830;12.082;2023-02-11T09:59:39;100941.94;;;22.60;28.91
16100;BME280;8154;50.830;12.082;2023-02-11T10:02:23;100946.97;;;22.63;28.84
16100;BME280;8154;50.830;12.082;2023-02-11T10:08:01;100951.31;;;22.64;28.80
16100;BME280;8154;50.830;12.082;2023-02-11T10:13:31;100944.81;;;22.67;28.92
16100;BME280;8154;50.830;12.082;2023-02-11T10:16:12;100951.97;;;22.66;28.95
16100;BME280;8154;50.830;12.082;2023-02-11T10:19:08;100958.47;;;22.64;29.01
16100;BME280;8154;50.830;12.082;2023-02-11T10:24:47;100957.69;;;22.71;29.02
16100;BME280;8154;50.830;12.082;2023-02-11T12:43:22;100881.16;;;22.90;28.76
16100;BME280;8154;50.830;12.082;2023-02-11T12:56:47;100872.19;;;22.91;28.89
16100;BME280;8154;50.830;12.082;2023-02-11T12:59:38;100866.19;;;22.89;28.93
16100;BME280;8154;50.830;12.082;2023-02-11T13:04:52;100860.53;;;22.92;29.02
16100;BME280;8154;50.830;12.082;2023-02-11T13:07:33;100865.69;;;22.93;28.89
16100;BME280;8154;50.830;12.082;2023-02-11T13:12:45;100877.69;;;22.89;28.88
16100;BME280;8154;50.830;12.082;2023-02-11T13:15:32;100877.84;;;22.88;29.13
16100;BME280;8154;50.830;12.082;2023-02-11T13:18:23;100882.00;;;22.90;28.90
16100;BME280;8154;50.830;12.082;2023-02-11T13:23:42;100877.53;;;22.91;29.07
16100;BME280;8154;50.830;12.082;2023-02-11T13:26:24;100879.34;;;22.90;28.91
16100;BME280;8154;50.830;12.082;2023-02-11T13:31:37;100880.19;;;22.91;29.01
16100;BME280;8154;50.830;12.082;2023-02-11T13:34:22;100878.34;;;22.91;29.07
16100;BME280;8154;50.830;12.082;2023-02-11T13:36:56;100880.19;;;22.91;28.93
16100;BME280;8154;50.830;12.082;2023-02-11T13:39:22;100877.84;;;22.88;28.90
16100;BME280;8154;50.830;12.082;2023-02-11T13:41:50;100877.69;;;22.89;29.11
16100;BME280;8154;50.830;12.082;2023-02-11T13:44:27;100873.31;;;22.88;29.18
16100;BME280;8154;50.830;12.082;2023-02-11T13:47:00;100880.19;;;22.91;29.19
16100;BME280;8154;50.830;12.082;2023-02-11T13:49:38;100878.34;;;22.91;28.94
16100;BME280;8154;50.830;12.082;2023-02-11T13:54:46;100891.00;;;22.89;29.09
16100;BME280;8154;50.830;12.082;2023-02-11T13:59:57;100881.69;;;22.93;29.16
16100;BME280;8154;50.830;12.082;2023-02-11T14:02:35;100880.50;;;22.88;29.13
16100;BME280;8154;50.830;12.082;2023-02-11T14:05:31;100877.00;;;22.87;29.26
16100;BME280;8154;50.830;12.082;2023-02-11T14:08:24;100880.84;;;22.93;29.19
16100;BME280;8154;50.830;12.082;2023-02-11T14:19:36;100885.38;;;22.92;29.17
16100;BME280;8154;50.830;12.082;2023-02-11T14:27:44;100870.19;;;22.93;29.11
16100;BME280;8154;50.830;12.082;2023-02-11T16:07:54;100917.53;;;22.91;29.27
16100;BME280;8154;50.830;12.082;2023-02-11T16:10:31;100923.81;;;22.90;29.33
16100;BME280;8154;50.830;12.082;2023-02-11T16:15:42;100932.19;;;22.95;29.18
16100;BME280;8154;50.830;12.082;2023-02-11T16:18:31;100939.66;;;22.91;29.26
16100;BME280;8154;50.830;12.082;2023-02-11T16:20:59;100926.50;;;22.90;29.22
16100;BME280;8154;50.830;12.082;2023-02-11T16:23:37;100932.34;;;22.93;29.13
16100;BME280;8154;50.830;12.082;2023-02-11T16:28:49;100938.69;;;22.92;29.20
16100;BME280;8154;50.830;12.082;2023-02-11T16:31:15;100946.00;;;22.90;29.26
16100;BME280;8154;50.830;12.082;2023-02-11T16:33:43;100951.19;;;22.92;29.16
16100;BME280;8154;50.830;12.082;2023-02-11T16:36:14;100947.50;;;22.93;29.15
16100;BME280;8154;50.830;12.082;2023-02-11T16:38:42;100956.66;;;22.90;29.20
16100;BME280;8154;50.830;12.082;2023-02-11T16:41:08;100951.34;;;22.90;29.13
16100;BME280;8154;50.830;12.082;2023-02-11T16:43:37;100946.69;;;22.92;29.20
16100;BME280;8154;50.830;12.082;2023-02-11T16:46:04;100945.53;;;22.95;29.02
16100;BME280;8154;50.830;12.082;2023-02-11T16:48:31;100946.84;;;22.91;29.22
16100;BME280;8154;50.830;12.082;2023-02-11T16:50:57;100955.66;;;22.91;29.26
16100;BME280;8154;50.830;12.082;2023-02-11T16:53:24;100959.03;;;22.93;29.30
16100;BME280;8154;50.830;12.082;2023-02-11T16:55:51;100965.19;;;22.94;29.21
16100;BME280;8154;50.830;12.082;2023-02-11T16:58:18;100963.66;;;22.91;29.14
16100;BME280;8154;50.830;12.082;2023-02-11T17:00:46;100971.00;;;22.89;29.46
16100;BME280;8154;50.830;12.082;2023-02-11T17:03:20;100967.19;;;22.92;29.34
16100;BME280;8154;50.830;12.082;2023-02-11T18:07:07;101002.63;;;22.84;29.37
16100;BME280;8154;50.830;12.082;2023-02-11T18:09:38;101008.72;;;22.94;29.16
16100;BME280;8154;50.830;12.082;2023-02-11T18:12:04;101009.06;;;22.99;29.25
16100;BME280;8154;50.830;12.082;2023-02-11T18:14:31;101013.56;;;22.99;29.32
16100;BME280;8154;50.830;12.082;2023-02-11T18:16:59;101020.03;;;22.96;29.29
16100;BME280;8154;50.830;12.082;2023-02-11T18:19:25;101028.19;;;22.95;29.26
16100;BME280;8154;50.830;12.082;2023-02-11T18:21:55;101019.50;;;22.93;29.23
16100;BME280;8154;50.830;12.082;2023-02-11T18:24:21;101022.53;;;22.98;29.26
16100;BME280;8154;50.830;12.082;2023-02-11T18:26:47;101026.22;;;22.97;29.20
16100;BME280;8154;50.830;12.082;2023-02-11T18:29:13;101026.38;;;22.95;29.34
16100;BME280;8154;50.830;12.082;2023-02-11T18:31:40;101024.56;;;22.96;29.33
16100;BME280;8154;50.830;12.082;2023-02-11T18:34:07;101021.56;;;22.99;29.25
16100;BME280;8154;50.830;12.082;2023-02-11T18:36:35;101025.22;;;22.98;29.28
16100;BME280;8154;50.830;12.082;2023-02-11T18:39:02;101024.72;;;22.94;29.26
16100;BME280;8154;50.830;12.082;2023-02-11T18:41:29;101020.34;;;22.93;29.42
16100;BME280;8154;50.830;12.082;2023-02-11T18:43:58;101023.69;;;22.95;29.25
16100;BME280;8154;50.830;12.082;2023-02-11T18:46:29;101029.72;;;22.97;29.16
16100;BME280;8154;50.830;12.082;2023-02-11T18:48:56;101021.19;;;22.94;29.29
16100;BME280;8154;50.830;12.082;2023-02-11T18:51:22;101023.69;;;22.95;29.28
16100;BME280;8154;50.830;12.082;2023-02-11T18:53:49;101031.25;;;23.00;29.28
16100;BME280;8154;50.830;12.082;2023-02-11T18:56:21;101036.56;;;23.00;29.25
16100;BME280;8154;50.830;12.082;2023-02-11T18:58:48;101028.19;;;22.95;29.42
16100;BME280;8154;50.830;12.082;2023-02-11T19:01:18;101030.84;;;22.95;29.38
16100;BME280;8154;50.830;12.082;2023-02-11T19:03:45;101030.69;;;22.96;29.40
16100;BME280;8154;50.830;12.082;2023-02-11T21:08:46;101135.25;;;23.00;29.43
16100;BME280;8154;50.830;12.082;2023-02-11T21:11:13;101147.25;;;23.04;29.39
16100;BME280;8154;50.830;12.082;2023-02-11T21:13:40;101153.75;;;23.01;29.41
16100;BME280;8154;50.830;12.082;2023-02-11T21:16:10;101156.56;;;23.00;29.46
16100;BME280;8154;50.830;12.082;2023-02-11T21:18:38;101154.44;;;23.03;29.51
16100;BME280;8154;50.830;12.082;2023-02-11T21:21:04;101152.59;;;23.04;29.25
16100;BME280;8154;50.830;12.082;2023-02-11T21:23:30;101154.28;;;23.05;29.23
16100;BME280;8154;50.830;12.082;2023-02-11T21:25:56;101159.63;;;23.05;29.46
16100;BME280;8154;50.830;12.082;2023-02-11T21:28:24;101169.59;;;23.03;29.39
16100;BME280;8154;50.830;12.082;2023-02-11T21:30:55;101177.91;;;23.00;29.48
16100;BME280;8154;50.830;12.082;2023-02-11T21:33:26;101177.91;;;23.00;29.59
16100;BME280;8154;50.830;12.082;2023-02-11T21:35:57;101176.91;;;23.01;29.32
16100;BME280;8154;50.830;12.082;2023-02-11T21:38:24;101179.56;;;23.01;29.50
16100;BME280;8154;50.830;12.082;2023-02-11T21:40:50;101184.44;;;23.05;29.39
16100;BME280;8154;50.830;12.082;2023-02-11T21:43:18;101185.31;;;23.06;29.58
16100;BME280;8154;50.830;12.082;2023-02-11T21:45:46;101194.00;;;23.08;29.50
16100;BME280;8154;50.830;12.082;2023-02-11T21:48:13;101194.31;;;23.05;29.49
16100;BME280;8154;50.830;12.082;2023-02-11T21:50:44;101187.41;;;23.02;29.54
16100;BME280;8154;50.830;12.082;2023-02-11T21:53:11;101191.63;;;23.05;29.42
16100;BME280;8154;50.830;12.082;2023-02-11T21:55:38;101186.16;;;23.06;29.45
16100;BME280;8154;50.830;12.082;2023-02-11T21:58:04;101185.59;;;23.03;29.60
16100;BME280;8154;50.830;12.082;2023-02-11T22:00:31;101200.91;;;23.01;29.58
16100;BME280;8154;50.830;12.082;2023-02-11T22:02:57;101197.44;;;23.00;29.39
16100;BME280;8154;50.830;12.082;2023-02-11T22:05:24;101197.13;;;23.03;29.43
16100;BME280;8154;50.830;12.082;2023-02-11T22:07:50;101204.81;;;23.06;29.57
